Ponteareas, Spain
Current Conditions -  °F | °C
As of 5:30 AM on Thursday 23 Oct 2014 (Local Time) from LEVX Reporting Station
Clear Clear  
Wind Chill: 17°   Ceiling: Unl
Heat Index: 17°   Visibility: 6mi
Dew Point: 14°   Wind: 5mph
Humidity: 82%   Direction: 240°WSW
Pressure: 30.27"   Gusts: NA
Location:  42.18°N, 8.5°W
Report Text: LEVX 230330Z 24004KT 200V260 CAVOK 17/14 Q1025 NOSIG
Loading
Personal Weather Stations






























Interactive Weather Map
Tropical Storm Tracking
New forecast layout! Learn more

10-Day Weather Forecast

Advertisements
Track Severe Weather on mobile